sensor_id;sensor_type;location;lat;lon;timestamp;pressure;altitude;pressure_sealevel;temperature;humidity
48424;BME280;34232;42.502;26.014;2023-07-13T00:00:06;100077.91;;;26.34;62.25
48424;BME280;34232;42.502;26.014;2023-07-13T00:03:11;100086.31;;;26.26;62.55
48424;BME280;34232;42.502;26.014;2023-07-13T00:05:38;100076.03;;;26.16;62.92
48424;BME280;34232;42.502;26.014;2023-07-13T00:08:04;100083.28;;;26.15;63.26
48424;BME280;34232;42.502;26.014;2023-07-13T00:10:30;100076.13;;;26.09;63.37
48424;BME280;34232;42.502;26.014;2023-07-13T00:13:36;100072.44;;;26.04;63.52
48424;BME280;34232;42.502;26.014;2023-07-13T00:16:42;100074.66;;;25.95;63.93
48424;BME280;34232;42.502;26.014;2023-07-13T00:19:48;100066.78;;;25.94;64.07
48424;BME280;34232;42.502;26.014;2023-07-13T00:22:13;100058.06;;;25.92;64.11
48424;BME280;34232;42.502;26.014;2023-07-13T00:24:39;100063.09;;;25.88;64.22
48424;BME280;34232;42.502;26.014;2023-07-13T00:27:27;100067.38;;;25.77;64.74
48424;BME280;34232;42.502;26.014;2023-07-13T00:29:54;100066.47;;;25.84;64.86
48424;BME280;34232;42.502;26.014;2023-07-13T00:32:20;100060.94;;;25.78;64.88
48424;BME280;34232;42.502;26.014;2023-07-13T00:34:45;100062.44;;;25.74;65.17
48424;BME280;34232;42.502;26.014;2023-07-13T00:37:11;100065.41;;;25.66;65.75
48424;BME280;34232;42.502;26.014;2023-07-13T00:39:39;100061.66;;;25.67;65.59
48424;BME280;34232;42.502;26.014;2023-07-13T00:42:26;100058.84;;;25.62;65.71
48424;BME280;34232;42.502;26.014;2023-07-13T00:48:23;100053.84;;;25.59;66.02
48424;BME280;34232;42.502;26.014;2023-07-13T00:50:53;100051.75;;;25.61;66.14
48424;BME280;34232;42.502;26.014;2023-07-13T00:53:20;100049.34;;;25.53;66.05
48424;BME280;34232;42.502;26.014;2023-07-13T00:55:46;100043.34;;;25.51;66.35
48424;BME280;34232;42.502;26.014;2023-07-13T00:58:13;100041.88;;;25.55;66.22
48424;BME280;34232;42.502;26.014;2023-07-13T01:00:39;100046.00;;;25.58;66.01
48424;BME280;34232;42.502;26.014;2023-07-13T01:03:09;100048.53;;;25.53;66.38
48424;BME280;34232;42.502;26.014;2023-07-13T01:05:55;100044.34;;;25.57;66.16
48424;BME280;34232;42.502;26.014;2023-07-13T01:08:40;100041.25;;;25.53;66.20
48424;BME280;34232;42.502;26.014;2023-07-13T01:11:06;100043.97;;;25.53;66.22
48424;BME280;34232;42.502;26.014;2023-07-13T01:13:38;100043.97;;;25.53;66.46
48424;BME280;34232;42.502;26.014;2023-07-13T01:16:05;100041.47;;;25.52;66.43
48424;BME280;34232;42.502;26.014;2023-07-13T01:18:37;100038.88;;;25.45;66.85
48424;BME280;34232;42.502;26.014;2023-07-13T01:21:49;100043.22;;;25.46;66.87
48424;BME280;34232;42.502;26.014;2023-07-13T01:24:36;100040.97;;;25.43;66.89
48424;BME280;34232;42.502;26.014;2023-07-13T01:27:02;100041.56;;;25.45;66.56
48424;BME280;34232;42.502;26.014;2023-07-13T01:29:27;100052.78;;;25.42;66.46
48424;BME280;34232;42.502;26.014;2023-07-13T01:32:15;100041.84;;;25.37;66.70
48424;BME280;34232;42.502;26.014;2023-07-13T01:34:42;100039.59;;;25.34;66.55
48424;BME280;34232;42.502;26.014;2023-07-13T01:37:14;100050.84;;;25.31;66.73
48424;BME280;34232;42.502;26.014;2023-07-13T01:40:20;100040.34;;;25.23;67.39
48424;BME280;34232;42.502;26.014;2023-07-13T01:43:06;100040.16;;;25.18;67.49
48424;BME280;34232;42.502;26.014;2023-07-13T01:46:11;100037.34;;;25.13;67.72
48424;BME280;34232;42.502;26.014;2023-07-13T01:49:17;100043.16;;;25.09;67.94
48424;BME280;34232;42.502;26.014;2023-07-13T01:51:43;100045.47;;;25.06;68.13
48424;BME280;34232;42.502;26.014;2023-07-13T01:54:08;100046.13;;;25.01;68.45
48424;BME280;34232;42.502;26.014;2023-07-13T01:57:13;100045.06;;;25.02;68.50
48424;BME280;34232;42.502;26.014;2023-07-13T02:00:03;100048.22;;;24.99;68.80
48424;BME280;34232;42.502;26.014;2023-07-13T02:02:29;100042.66;;;24.94;68.82
48424;BME280;34232;42.502;26.014;2023-07-13T02:04:55;100041.41;;;24.90;69.05
48424;BME280;34232;42.502;26.014;2023-07-13T02:07:20;100035.44;;;24.88;69.41
48424;BME280;34232;42.502;26.014;2023-07-13T02:09:45;100042.91;;;24.86;69.60
48424;BME280;34232;42.502;26.014;2023-07-13T02:12:13;100037.97;;;24.83;69.85
48424;BME280;34232;42.502;26.014;2023-07-13T02:14:39;100036.31;;;24.82;70.03
48424;BME280;34232;42.502;26.014;2023-07-13T02:17:44;100036.75;;;24.79;70.20
48424;BME280;34232;42.502;26.014;2023-07-13T02:20:09;100033.44;;;24.77;70.40
48424;BME280;34232;42.502;26.014;2023-07-13T02:22:38;100030.59;;;24.72;70.57
48424;BME280;34232;42.502;26.014;2023-07-13T02:25:43;100029.97;;;24.70;70.93
48424;BME280;34232;42.502;26.014;2023-07-13T02:28:48;100035.81;;;24.67;70.96
48424;BME280;34232;42.502;26.014;2023-07-13T02:31:16;100043.28;;;24.65;71.04
48424;BME280;34232;42.502;26.014;2023-07-13T02:34:02;100043.94;;;24.60;71.36
48424;BME280;34232;42.502;26.014;2023-07-13T02:36:47;100045.63;;;24.55;71.78
48424;BME280;34232;42.502;26.014;2023-07-13T02:39:33;100046.03;;;24.52;71.99
48424;BME280;34232;42.502;26.014;2023-07-13T02:41:59;100056.91;;;24.38;72.45
48424;BME280;34232;42.502;26.014;2023-07-13T02:44:25;100060.81;;;24.42;72.68
48424;BME280;34232;42.502;26.014;2023-07-13T02:47:13;100048.59;;;24.47;72.62
48424;BME280;34232;42.502;26.014;2023-07-13T02:49:57;100049.81;;;24.51;72.36
48424;BME280;34232;42.502;26.014;2023-07-13T02:52:23;100050.84;;;24.50;72.43
48424;BME280;34232;42.502;26.014;2023-07-13T02:55:28;100052.25;;;24.52;72.56
48424;BME280;34232;42.502;26.014;2023-07-13T02:58:15;100047.75;;;24.46;72.51
48424;BME280;34232;42.502;26.014;2023-07-13T03:01:06;100047.69;;;24.53;72.59
48424;BME280;34232;42.502;26.014;2023-07-13T03:03:51;100057.59;;;24.59;72.51
48424;BME280;34232;42.502;26.014;2023-07-13T03:06:17;100061.31;;;24.64;72.43
48424;BME280;34232;42.502;26.014;2023-07-13T03:08:43;100065.81;;;24.70;72.10
48424;BME280;34232;42.502;26.014;2023-07-13T03:11:29;100065.16;;;24.75;72.24
48424;BME280;34232;42.502;26.014;2023-07-13T03:14:15;100059.34;;;24.78;72.41
48424;BME280;34232;42.502;26.014;2023-07-13T03:16:41;100065.34;;;24.80;72.21
48424;BME280;34232;42.502;26.014;2023-07-13T03:19:06;100053.31;;;24.83;72.03
48424;BME280;34232;42.502;26.014;2023-07-13T03:21:31;100059.06;;;24.86;71.67
48424;BME280;34232;42.502;26.014;2023-07-13T03:23:57;100056.97;;;24.88;71.95
48424;BME280;34232;42.502;26.014;2023-07-13T03:26:42;100061.94;;;24.91;71.69
48424;BME280;34232;42.502;26.014;2023-07-13T03:29:28;100069.78;;;24.93;71.45
48424;BME280;34232;42.502;26.014;2023-07-13T03:32:14;100068.56;;;24.95;71.76
48424;BME280;34232;42.502;26.014;2023-07-13T03:34:40;100068.56;;;24.95;71.66
48424;BME280;34232;42.502;26.014;2023-07-13T03:37:05;100066.47;;;24.97;71.82
48424;BME280;34232;42.502;26.014;2023-07-13T03:39:30;100069.53;;;25.01;71.90
48424;BME280;34232;42.502;26.014;2023-07-13T03:41:56;100070.38;;;25.01;71.54
48424;BME280;34232;42.502;26.014;2023-07-13T03:44:22;100072.63;;;25.04;72.21
48424;BME280;34232;42.502;26.014;2023-07-13T03:46:49;100069.94;;;25.04;72.15
48424;BME280;34232;42.502;26.014;2023-07-13T03:49:14;100071.56;;;25.05;72.39
48424;BME280;34232;42.502;26.014;2023-07-13T03:51:40;100068.88;;;25.05;72.77
48424;BME280;34232;42.502;26.014;2023-07-13T03:54:05;100076.75;;;25.07;72.53
48424;BME280;34232;42.502;26.014;2023-07-13T03:57:10;100072.97;;;25.15;72.96
48424;BME280;34232;42.502;26.014;2023-07-13T03:59:38;100071.47;;;25.19;72.97
48424;BME280;34232;42.502;26.014;2023-07-13T04:02:04;100080.75;;;25.23;72.92
48424;BME280;34232;42.502;26.014;2023-07-13T04:04:30;100073.28;;;25.25;72.98
48424;BME280;34232;42.502;26.014;2023-07-13T04:06:56;100076.16;;;25.30;72.95
48424;BME280;34232;42.502;26.014;2023-07-13T04:09:23;100066.53;;;25.34;72.69
48424;BME280;34232;42.502;26.014;2023-07-13T04:11:48;100074.81;;;25.39;73.10
48424;BME280;34232;42.502;26.014;2023-07-13T04:14:14;100071.84;;;25.47;72.98
48424;BME280;34232;42.502;26.014;2023-07-13T04:16:39;100068.00;;;25.55;72.82
48424;BME280;34232;42.502;26.014;2023-07-13T04:19:04;100073.78;;;25.58;72.69
48424;BME280;34232;42.502;26.014;2023-07-13T04:21:30;100076.44;;;25.65;71.94
48424;BME280;34232;42.502;26.014;2023-07-13T04:23:56;100075.09;;;25.74;72.28
48424;BME280;34232;42.502;26.014;2023-07-13T04:26:42;100077.25;;;25.84;71.78
48424;BME280;34232;42.502;26.014;2023-07-13T04:29:29;100074.28;;;25.92;72.30
48424;BME280;34232;42.502;26.014;2023-07-13T04:32:15;100078.75;;;25.98;71.10
48424;BME280;34232;42.502;26.014;2023-07-13T04:34:41;100081.16;;;26.06;70.36
48424;BME280;34232;42.502;26.014;2023-07-13T04:37:06;100083.69;;;26.01;70.24
48424;BME280;34232;42.502;26.014;2023-07-13T04:39:32;100090.56;;;26.15;70.81
48424;BME280;34232;42.502;26.014;2023-07-13T04:42:37;100088.78;;;26.27;70.65
48424;BME280;34232;42.502;26.014;2023-07-13T04:45:04;100098.22;;;26.36;69.14
48424;BME280;34232;42.502;26.014;2023-07-13T04:47:30;100088.09;;;26.32;68.30
48424;BME280;34232;42.502;26.014;2023-07-13T04:50:15;100096.88;;;26.45;67.26
48424;BME280;34232;42.502;26.014;2023-07-13T04:52:45;100095.56;;;26.48;67.58
48424;BME280;34232;42.502;26.014;2023-07-13T04:55:11;100098.31;;;26.60;66.18
48424;BME280;34232;42.502;26.014;2023-07-13T04:57:36;100101.13;;;26.65;66.26
48424;BME280;34232;42.502;26.014;2023-07-13T05:00:03;100099.19;;;26.72;66.11
48424;BME280;34232;42.502;26.014;2023-07-13T05:02:31;100094.63;;;26.84;64.46
48424;BME280;34232;42.502;26.014;2023-07-13T05:04:58;100101.16;;;26.95;65.25
48424;BME280;34232;42.502;26.014;2023-07-13T05:07:43;100099.38;;;27.00;64.60
48424;BME280;34232;42.502;26.014;2023-07-13T05:10:09;100092.69;;;27.14;64.61
48424;BME280;34232;42.502;26.014;2023-07-13T05:12:34;100090.59;;;27.28;63.14
48424;BME280;34232;42.502;26.014;2023-07-13T05:15:23;100090.72;;;27.45;62.42
48424;BME280;34232;42.502;26.014;2023-07-13T05:17:49;100089.22;;;27.72;62.15
48424;BME280;34232;42.502;26.014;2023-07-13T05:20:36;100100.44;;;28.04;62.14
48424;BME280;34232;42.502;26.014;2023-07-13T05:23:41;100097.53;;;28.34;61.55
48424;BME280;34232;42.502;26.014;2023-07-13T05:26:09;100098.53;;;28.57;59.21
48424;BME280;34232;42.502;26.014;2023-07-13T05:28:34;100098.13;;;28.65;57.90
48424;BME280;34232;42.502;26.014;2023-07-13T05:31:00;100102.38;;;28.89;57.62
48424;BME280;34232;42.502;26.014;2023-07-13T05:33:26;100091.22;;;29.02;56.72
48424;BME280;34232;42.502;26.014;2023-07-13T05:35:52;100098.19;;;29.32;55.78
48424;BME280;34232;42.502;26.014;2023-07-13T05:38:17;100101.72;;;29.49;54.64
48424;BME280;34232;42.502;26.014;2023-07-13T05:40:43;100106.31;;;29.65;53.93
48424;BME280;34232;42.502;26.014;2023-07-13T05:43:09;100103.72;;;29.75;53.61
48424;BME280;34232;42.502;26.014;2023-07-13T05:45:34;100106.88;;;29.67;53.18
48424;BME280;34232;42.502;26.014;2023-07-13T05:47:59;100120.78;;;29.71;52.64
48424;BME280;34232;42.502;26.014;2023-07-13T05:50:27;100126.31;;;29.98;52.89
48424;BME280;34232;42.502;26.014;2023-07-13T05:53:12;100117.69;;;30.01;52.24
48424;BME280;34232;42.502;26.014;2023-07-13T05:55:41;100128.22;;;30.19;52.48
48424;BME280;34232;42.502;26.014;2023-07-13T05:58:06;100119.63;;;30.27;52.34
48424;BME280;34232;42.502;26.014;2023-07-13T06:00:32;100111.44;;;30.49;51.20
48424;BME280;34232;42.502;26.014;2023-07-13T06:02:58;100111.72;;;30.52;51.88
48424;BME280;34232;42.502;26.014;2023-07-13T06:05:24;100114.94;;;30.71;51.33
48424;BME280;34232;42.502;26.014;2023-07-13T06:07:49;100107.56;;;30.93;49.98
48424;BME280;34232;42.502;26.014;2023-07-13T06:10:14;100115.94;;;31.19;49.33
48424;BME280;34232;42.502;26.014;2023-07-13T06:12:40;100112.47;;;30.96;49.39
48424;BME280;34232;42.502;26.014;2023-07-13T06:15:26;100117.59;;;30.93;49.84
48424;BME280;34232;42.502;26.014;2023-07-13T06:17:53;100111.53;;;30.86;50.56
48424;BME280;34232;42.502;26.014;2023-07-13T06:21:40;100117.81;;;30.86;50.79
48424;BME280;34232;42.502;26.014;2023-07-13T06:24:30;100101.03;;;31.26;49.89
48424;BME280;34232;42.502;26.014;2023-07-13T06:27:23;100102.00;;;31.10;49.28
48424;BME280;34232;42.502;26.014;2023-07-13T06:30:11;100099.13;;;30.95;50.22
48424;BME280;34232;42.502;26.014;2023-07-13T06:32:58;100103.72;;;31.21;49.53
48424;BME280;34232;42.502;26.014;2023-07-13T06:35:44;100105.47;;;31.33;48.97
48424;BME280;34232;42.502;26.014;2023-07-13T06:38:32;100108.94;;;31.28;49.68
48424;BME280;34232;42.502;26.014;2023-07-13T06:41:17;100105.66;;;31.26;48.90
48424;BME280;34232;42.502;26.014;2023-07-13T06:44:04;100089.84;;;31.60;48.71
48424;BME280;34232;42.502;26.014;2023-07-13T06:46:30;100089.97;;;31.85;48.12
48424;BME280;34232;42.502;26.014;2023-07-13T06:52:18;100087.94;;;32.13;47.89
48424;BME280;34232;42.502;26.014;2023-07-13T06:54:43;100085.19;;;32.08;47.18
48424;BME280;34232;42.502;26.014;2023-07-13T06:57:30;100084.13;;;32.14;47.38
48424;BME280;34232;42.502;26.014;2023-07-13T07:00:36;100091.31;;;32.45;47.05
48424;BME280;34232;42.502;26.014;2023-07-13T07:03:24;100089.13;;;32.52;46.93
48424;BME280;34232;42.502;26.014;2023-07-13T07:06:29;100083.97;;;32.56;45.92
48424;BME280;34232;42.502;26.014;2023-07-13T07:08:55;100086.47;;;32.83;46.09
48424;BME280;34232;42.502;26.014;2023-07-13T07:12:03;100080.97;;;32.42;46.15
48424;BME280;34232;42.502;26.014;2023-07-13T07:14:53;100073.69;;;32.78;45.33
48424;BME280;34232;42.502;26.014;2023-07-13T07:17:58;100080.50;;;33.11;44.15
48424;BME280;34232;42.502;26.014;2023-07-13T07:21:00;100074.47;;;33.19;43.29
48424;BME280;34232;42.502;26.014;2023-07-13T07:24:05;100075.84;;;33.42;44.95
48424;BME280;34232;42.502;26.014;2023-07-13T07:27:11;100079.59;;;33.61;44.27
48424;BME280;34232;42.502;26.014;2023-07-13T07:30:17;100077.94;;;33.76;43.16
48424;BME280;34232;42.502;26.014;2023-07-13T07:33:04;100068.38;;;33.63;43.10
48424;BME280;34232;42.502;26.014;2023-07-13T07:36:11;100072.78;;;33.49;42.92
48424;BME280;34232;42.502;26.014;2023-07-13T07:39:05;100070.09;;;33.23;43.52
48424;BME280;34232;42.502;26.014;2023-07-13T07:42:12;100066.84;;;33.11;44.31
48424;BME280;34232;42.502;26.014;2023-07-13T07:44:57;100060.25;;;33.48;43.04
48424;BME280;34232;42.502;26.014;2023-07-13T07:47:43;100065.72;;;33.38;43.02
48424;BME280;34232;42.502;26.014;2023-07-13T07:50:21;100064.38;;;33.30;43.29
48424;BME280;34232;42.502;26.014;2023-07-13T07:53:06;100053.13;;;33.52;43.70
48424;BME280;34232;42.502;26.014;2023-07-13T08:02:18;100062.84;;;33.93;41.64
48424;BME280;34232;42.502;26.014;2023-07-13T08:05:07;100061.88;;;34.28;41.56
48424;BME280;34232;42.502;26.014;2023-07-13T08:17:06;100059.84;;;35.17;39.70
48424;BME280;34232;42.502;26.014;2023-07-13T08:19:57;100050.97;;;35.30;39.15
48424;BME280;34232;42.502;26.014;2023-07-13T08:22:28;100038.69;;;35.52;38.52
48424;BME280;34232;42.502;26.014;2023-07-13T08:28:11;100035.19;;;36.13;38.41
48424;BME280;34232;42.502;26.014;2023-07-13T08:31:16;100035.25;;;36.07;37.31
48424;BME280;34232;42.502;26.014;2023-07-13T08:34:02;100036.63;;;36.29;37.87
48424;BME280;34232;42.502;26.014;2023-07-13T08:36:28;100031.16;;;36.29;38.27
48424;BME280;34232;42.502;26.014;2023-07-13T08:42:05;100041.06;;;36.25;37.32
48424;BME280;34232;42.502;26.014;2023-07-13T08:48:18;100041.38;;;35.81;38.77
48424;BME280;34232;42.502;26.014;2023-07-13T08:51:21;100045.69;;;35.87;37.51
48424;BME280;34232;42.502;26.014;2023-07-13T08:53:51;100042.31;;;35.71;37.85
48424;BME280;34232;42.502;26.014;2023-07-13T08:56:21;100037.28;;;35.78;38.16
48424;BME280;34232;42.502;26.014;2023-07-13T08:59:27;100042.25;;;36.19;37.95
48424;BME280;34232;42.502;26.014;2023-07-13T09:14:02;100035.81;;;36.28;36.83
48424;BME280;34232;42.502;26.014;2023-07-13T09:16:44;100024.16;;;36.18;36.73
48424;BME280;34232;42.502;26.014;2023-07-13T09:44:38;99994.97;;;37.52;33.38
48424;BME280;34232;42.502;26.014;2023-07-13T09:47:03;99996.50;;;37.71;33.79
48424;BME280;34232;42.502;26.014;2023-07-13T09:49:42;99988.16;;;37.35;32.25
48424;BME280;34232;42.502;26.014;2023-07-13T09:52:40;99987.34;;;37.35;32.53
48424;BME280;34232;42.502;26.014;2023-07-13T09:55:27;99979.41;;;37.20;32.70
48424;BME280;34232;42.502;26.014;2023-07-13T09:58:09;99967.72;;;37.28;32.55
48424;BME280;34232;42.502;26.014;2023-07-13T10:01:00;99964.22;;;37.63;31.41
48424;BME280;34232;42.502;26.014;2023-07-13T10:03:32;99966.41;;;37.66;31.30
48424;BME280;34232;42.502;26.014;2023-07-13T10:06:28;99961.84;;;37.84;30.86
48424;BME280;34232;42.502;26.014;2023-07-13T10:09:17;99956.75;;;37.91;30.20
48424;BME280;34232;42.502;26.014;2023-07-13T10:12:23;99954.31;;;38.26;30.14
48424;BME280;34232;42.502;26.014;2023-07-13T10:15:29;99954.69;;;38.55;28.42
48424;BME280;34232;42.502;26.014;2023-07-13T10:18:15;99950.19;;;38.59;28.71
48424;BME280;34232;42.502;26.014;2023-07-13T10:20:41;99944.25;;;38.43;28.31
48424;BME280;34232;42.502;26.014;2023-07-13T10:26:18;99929.88;;;38.46;27.33
48424;BME280;34232;42.502;26.014;2023-07-13T10:38:26;99916.50;;;39.24;27.12
48424;BME280;34232;42.502;26.014;2023-07-13T10:41:15;99910.28;;;39.10;25.81
48424;BME280;34232;42.502;26.014;2023-07-13T10:43:59;99911.47;;;39.35;26.13
48424;BME280;34232;42.502;26.014;2023-07-13T10:46:46;99905.91;;;39.17;25.67
48424;BME280;34232;42.502;26.014;2023-07-13T10:49:16;99913.03;;;39.10;26.07
48424;BME280;34232;42.502;26.014;2023-07-13T10:58:40;99909.63;;;39.61;24.78
48424;BME280;34232;42.502;26.014;2023-07-13T11:09:55;99905.59;;;39.93;23.91
48424;BME280;34232;42.502;26.014;2023-07-13T11:21:28;99900.22;;;40.05;25.69
48424;BME280;34232;42.502;26.014;2023-07-13T11:24:17;99892.56;;;40.19;25.13
48424;BME280;34232;42.502;26.014;2023-07-13T11:27:10;99892.38;;;40.50;25.90
48424;BME280;34232;42.502;26.014;2023-07-13T11:36:17;99880.41;;;40.38;26.38
48424;BME280;34232;42.502;26.014;2023-07-13T11:39:04;99884.41;;;40.49;25.86
48424;BME280;34232;42.502;26.014;2023-07-13T11:44:54;99873.91;;;40.25;24.07
48424;BME280;34232;42.502;26.014;2023-07-13T11:48:01;99884.72;;;40.56;25.03
48424;BME280;34232;42.502;26.014;2023-07-13T11:53:44;99892.09;;;40.26;24.85
48424;BME280;34232;42.502;26.014;2023-07-13T11:56:14;99886.94;;;40.07;24.00
48424;BME280;34232;42.502;26.014;2023-07-13T11:58:41;99888.69;;;40.20;23.81
48424;BME280;34232;42.502;26.014;2023-07-13T12:01:30;99883.34;;;39.98;23.98
48424;BME280;34232;42.502;26.014;2023-07-13T12:04:20;99878.75;;;40.28;24.53
48424;BME280;34232;42.502;26.014;2023-07-13T12:07:23;99867.63;;;39.90;23.64
48424;BME280;34232;42.502;26.014;2023-07-13T12:10:29;99861.94;;;40.04;23.88
48424;BME280;34232;42.502;26.014;2023-07-13T12:13:37;99853.63;;;40.12;24.20
48424;BME280;34232;42.502;26.014;2023-07-13T12:16:29;99861.25;;;40.33;24.53
48424;BME280;34232;42.502;26.014;2023-07-13T12:22:26;99848.97;;;40.60;23.87
48424;BME280;34232;42.502;26.014;2023-07-13T12:28:35;99828.16;;;40.62;23.76
48424;BME280;34232;42.502;26.014;2023-07-13T12:34:49;99820.16;;;40.40;23.95
48424;BME280;34232;42.502;26.014;2023-07-13T12:37:16;99824.00;;;40.56;23.66
48424;BME280;34232;42.502;26.014;2023-07-13T12:40:02;99815.81;;;40.68;23.62
48424;BME280;34232;42.502;26.014;2023-07-13T12:43:16;99808.25;;;40.48;23.70
48424;BME280;34232;42.502;26.014;2023-07-13T12:46:24;99804.56;;;40.27;24.18
48424;BME280;34232;42.502;26.014;2023-07-13T12:49:13;99790.38;;;40.07;24.16
48424;BME280;34232;42.502;26.014;2023-07-13T12:51:59;99795.88;;;40.07;24.40
48424;BME280;34232;42.502;26.014;2023-07-13T12:54:55;99792.44;;;40.19;23.96
48424;BME280;34232;42.502;26.014;2023-07-13T12:57:26;99789.34;;;40.20;24.51
48424;BME280;34232;42.502;26.014;2023-07-13T13:09:19;99788.31;;;39.70;24.75
48424;BME280;34232;42.502;26.014;2023-07-13T13:12:05;99778.53;;;39.81;25.20
48424;BME280;34232;42.502;26.014;2023-07-13T13:18:21;99784.78;;;40.25;24.65
48424;BME280;34232;42.502;26.014;2023-07-13T13:21:26;99774.06;;;40.32;25.16
48424;BME280;34232;42.502;26.014;2023-07-13T13:24:31;99773.88;;;39.90;23.70
48424;BME280;34232;42.502;26.014;2023-07-13T13:27:42;99766.72;;;39.72;25.26
48424;BME280;34232;42.502;26.014;2023-07-13T13:30:30;99769.13;;;39.82;25.28
48424;BME280;34232;42.502;26.014;2023-07-13T13:42:38;99742.72;;;39.64;25.13
48424;BME280;34232;42.502;26.014;2023-07-13T13:45:44;99751.97;;;39.33;24.35
48424;BME280;34232;42.502;26.014;2023-07-13T13:48:19;99745.03;;;39.27;25.08
48424;BME280;34232;42.502;26.014;2023-07-13T13:51:35;99732.06;;;39.19;24.87
48424;BME280;34232;42.502;26.014;2023-07-13T13:54:19;99731.72;;;39.46;24.82
48424;BME280;34232;42.502;26.014;2023-07-13T13:57:23;99724.91;;;39.52;23.82
48424;BME280;34232;42.502;26.014;2023-07-13T13:59:53;99728.13;;;39.72;24.04
48424;BME280;34232;42.502;26.014;2023-07-13T14:02:38;99728.31;;;39.58;24.59
48424;BME280;34232;42.502;26.014;2023-07-13T14:05:45;99727.16;;;39.68;24.39
48424;BME280;34232;42.502;26.014;2023-07-13T14:08:31;99720.31;;;39.91;24.31
48424;BME280;34232;42.502;26.014;2023-07-13T14:11:18;99714.44;;;40.01;25.02
48424;BME280;34232;42.502;26.014;2023-07-13T14:23:13;99714.66;;;39.88;24.77
48424;BME280;34232;42.502;26.014;2023-07-13T14:25:59;99714.94;;;39.95;25.16
48424;BME280;34232;42.502;26.014;2023-07-13T14:28:47;99720.03;;;39.67;24.41
48424;BME280;34232;42.502;26.014;2023-07-13T14:31:51;99716.00;;;39.47;24.50
48424;BME280;34232;42.502;26.014;2023-07-13T14:34:56;99714.88;;;39.57;24.97
48424;BME280;34232;42.502;26.014;2023-07-13T14:38:02;99712.44;;;39.55;24.92
48424;BME280;34232;42.502;26.014;2023-07-13T14:40:48;99706.78;;;39.26;24.76
48424;BME280;34232;42.502;26.014;2023-07-13T14:43:53;99703.19;;;39.42;24.80
48424;BME280;34232;42.502;26.014;2023-07-13T14:46:59;99713.25;;;39.21;25.30
48424;BME280;34232;42.502;26.014;2023-07-13T14:49:45;99715.03;;;39.26;25.49
48424;BME280;34232;42.502;26.014;2023-07-13T14:52:22;99708.91;;;39.11;24.90
48424;BME280;34232;42.502;26.014;2023-07-13T14:55:12;99711.47;;;39.16;25.31
48424;BME280;34232;42.502;26.014;2023-07-13T14:58:26;99706.75;;;39.34;25.09
48424;BME280;34232;42.502;26.014;2023-07-13T15:01:12;99703.84;;;39.39;24.95
48424;BME280;34232;42.502;26.014;2023-07-13T15:03:41;99704.03;;;39.26;24.36
48424;BME280;34232;42.502;26.014;2023-07-13T15:06:30;99701.25;;;39.17;24.07
48424;BME280;34232;42.502;26.014;2023-07-13T15:09:36;99703.22;;;39.08;24.78
48424;BME280;34232;42.502;26.014;2023-07-13T15:12:22;99704.84;;;39.26;25.99
48424;BME280;34232;42.502;26.014;2023-07-13T15:15:29;99707.75;;;39.21;25.75
48424;BME280;34232;42.502;26.014;2023-07-13T15:18:16;99696.72;;;39.21;25.36
48424;BME280;34232;42.502;26.014;2023-07-13T15:21:03;99707.09;;;39.15;24.54
48424;BME280;34232;42.502;26.014;2023-07-13T15:23:29;99707.09;;;39.15;25.61
48424;BME280;34232;42.502;26.014;2023-07-13T15:26:15;99707.75;;;39.21;26.96
48424;BME280;34232;42.502;26.014;2023-07-13T15:29:02;99705.16;;;38.99;25.29
48424;BME280;34232;42.502;26.014;2023-07-13T15:31:48;99696.53;;;38.92;24.63
48424;BME280;34232;42.502;26.014;2023-07-13T15:34:54;99703.34;;;38.94;24.47
48424;BME280;34232;42.502;26.014;2023-07-13T15:37:59;99706.72;;;38.82;24.66
48424;BME280;34232;42.502;26.014;2023-07-13T15:41:16;99704.94;;;38.87;24.96
48424;BME280;34232;42.502;26.014;2023-07-13T15:44:04;99707.53;;;38.74;24.83
48424;BME280;34232;42.502;26.014;2023-07-13T15:47:11;99709.19;;;38.93;25.04
48424;BME280;34232;42.502;26.014;2023-07-13T15:50:16;99701.75;;;39.10;25.80
48424;BME280;34232;42.502;26.014;2023-07-13T15:53:02;99699.16;;;39.23;25.47
48424;BME280;34232;42.502;26.014;2023-07-13T15:55:29;99705.31;;;39.19;25.47
48424;BME280;34232;42.502;26.014;2023-07-13T15:58:35;99703.53;;;39.15;27.32
48424;BME280;34232;42.502;26.014;2023-07-13T16:01:40;99698.34;;;39.05;25.97
48424;BME280;34232;42.502;26.014;2023-07-13T16:04:46;99701.84;;;38.62;24.81
48424;BME280;34232;42.502;26.014;2023-07-13T16:07:12;99705.34;;;38.54;25.60
48424;BME280;34232;42.502;26.014;2023-07-13T16:09:38;99705.66;;;38.53;25.15
48424;BME280;34232;42.502;26.014;2023-07-13T16:12:43;99708.31;;;38.66;27.21
48424;BME280;34232;42.502;26.014;2023-07-13T16:15:29;99716.44;;;38.71;26.90
48424;BME280;34232;42.502;26.014;2023-07-13T16:18:34;99713.28;;;38.47;25.65
48424;BME280;34232;42.502;26.014;2023-07-13T16:21:43;99710.00;;;38.36;26.50
48424;BME280;34232;42.502;26.014;2023-07-13T16:24:45;99704.22;;;38.46;28.38
48424;BME280;34232;42.502;26.014;2023-07-13T16:27:57;99704.25;;;38.55;27.81
48424;BME280;34232;42.502;26.014;2023-07-13T16:30:43;99693.16;;;38.38;26.21
48424;BME280;34232;42.502;26.014;2023-07-13T16:33:30;99694.88;;;38.16;27.92
48424;BME280;34232;42.502;26.014;2023-07-13T16:36:36;99684.59;;;38.00;26.96
48424;BME280;34232;42.502;26.014;2023-07-13T16:39:25;99690.97;;;37.78;26.75
48424;BME280;34232;42.502;26.014;2023-07-13T16:42:12;99689.34;;;37.77;26.19